Time;durP1;ratioP1;P1;durP2;ratioP2;P2;SDS_P1;SDS_P2;PMS_P1;PMS_P2;Temp;Humidity;BMP_temperature;BMP_pressure;BME280_temperature;BME280_humidity;BME280_pressure;Samples;Min_cycle;Max_cycle;Signal;HPM_P1;HPM_P2
2023/05/24 00:00:20;;;;;;;9.50;5.50;;;;;;;12.95;96.50;100458.20;105495;1254;73410;-71
2023/05/24 00:03:14;;;;;;;6.70;5.30;;;;;;;12.88;96.38;100458.89;105455;1254;69208;-71
2023/05/24 00:05:45;;;;;;;6.80;4.40;;;;;;;12.83;96.42;100461.94;105496;1254;69317;-70
2023/05/24 00:08:16;;;;;;;7.20;4.10;;;;;;;12.76;96.19;100466.45;105459;1257;73269;-73
2023/05/24 00:10:45;;;;;;;7.00;4.30;;;;;;;12.68;95.82;100469.79;105463;1253;82963;-71
2023/05/24 00:13:17;;;;;;;5.00;3.90;;;;;;;12.62;96.30;100475.29;105519;1253;75077;-72
2023/05/24 00:15:51;;;;;;;7.70;3.90;;;;;;;12.54;95.88;100471.63;105572;1257;69199;-71
2023/05/24 00:18:25;;;;;;;6.70;3.70;;;;;;;12.46;95.82;100479.88;105453;1254;69212;-69
2023/05/24 00:20:59;;;;;;;5.60;3.60;;;;;;;12.38;96.14;100483.91;105504;1254;74251;-72
2023/05/24 00:23:31;;;;;;;5.20;3.00;;;;;;;12.29;95.81;100485.50;105518;1254;83606;-72
2023/05/24 00:26:02;;;;;;;4.50;2.80;;;;;;;12.16;95.48;100486.23;105515;1257;73852;-70
2023/05/24 00:28:39;;;;;;;4.60;2.60;;;;;;;12.04;95.78;100486.02;105494;1256;69321;-72
2023/05/24 00:31:14;;;;;;;3.50;2.10;;;;;;;11.96;95.64;100489.36;105440;1254;69134;-72
2023/05/24 00:33:58;;;;;;;3.00;2.00;;;;;;;11.85;95.79;100496.59;105456;1253;74076;-72
2023/05/24 00:36:30;;;;;;;2.20;1.90;;;;;;;11.77;96.03;100499.38;105419;1255;82492;-71
2023/05/24 00:39:01;;;;;;;2.20;2.00;;;;;;;11.69;96.08;100500.03;105449;1255;73740;-72
2023/05/24 00:41:33;;;;;;;2.30;1.90;;;;;;;11.63;96.24;100507.10;105405;1259;69244;-71
2023/05/24 00:44:04;;;;;;;3.60;2.80;;;;;;;11.56;96.34;100512.96;105414;1259;69302;-72
2023/05/24 00:46:42;;;;;;;4.40;2.50;;;;;;;11.50;96.42;100510.23;105482;1254;73897;-69
2023/05/24 00:49:11;;;;;;;4.00;2.40;;;;;;;11.44;96.61;100513.79;105450;1259;83484;-73
2023/05/24 00:51:42;;;;;;;4.20;2.40;;;;;;;11.35;96.31;100515.88;105410;1254;73861;-75
2023/05/24 00:54:17;;;;;;;4.10;2.30;;;;;;;11.23;96.06;100518.45;105471;1257;69401;-74
2023/05/24 00:56:54;;;;;;;4.00;2.40;;;;;;;11.11;96.07;100526.42;105464;1254;69167;-74
2023/05/24 00:59:32;;;;;;;4.90;2.30;;;;;;;10.96;96.06;100526.25;105494;1257;73195;-78
2023/05/24 01:02:12;;;;;;;3.10;2.10;;;;;;;10.88;96.30;100525.50;105479;1259;83198;-73
2023/05/24 01:04:43;;;;;;;8.00;2.70;;;;;;;10.80;96.30;100526.67;105548;1254;73690;-71
2023/05/24 01:07:40;;;;;;;4.40;2.30;;;;;;;10.71;96.54;100528.92;105545;1254;69249;-73
2023/05/24 01:10:51;;;;;;;6.70;3.10;;;;;;;10.69;96.94;100532.65;105386;1259;69180;-74
2023/05/24 01:13:46;;;;;;;5.50;3.40;;;;;;;10.63;96.76;100532.35;105408;1257;74427;-76
2023/05/24 01:16:45;;;;;;;6.90;3.20;;;;;;;10.58;97.21;100541.08;105516;1254;83489;-75
2023/05/24 01:19:55;;;;;;;5.00;2.30;;;;;;;10.52;96.58;100548.12;105294;1259;74027;-75
2023/05/24 01:22:58;;;;;;;5.20;2.60;;;;;;;10.38;96.50;100548.77;105441;1257;69189;-76
2023/05/24 01:25:51;;;;;;;5.50;2.40;;;;;;;10.30;96.69;100555.31;105279;1259;69305;-72
2023/05/24 01:28:33;;;;;;;7.30;2.40;;;;;;;10.22;96.66;100562.71;105372;1254;74213;-76
2023/05/24 01:31:11;;;;;;;7.90;2.70;;;;;;;10.15;96.64;100561.89;105406;1259;83383;-74
2023/05/24 01:34:00;;;;;;;4.60;2.50;;;;;;;10.10;96.94;100559.09;105374;1254;73843;-75
2023/05/24 01:36:43;;;;;;;9.30;3.40;;;;;;;10.07;97.00;100566.34;105522;1257;69159;-75
2023/05/24 01:39:30;;;;;;;6.50;3.10;;;;;;;10.03;97.29;100567.15;105455;1257;69198;-72
2023/05/24 01:42:13;;;;;;;6.30;2.90;;;;;;;10.02;97.24;100573.83;105178;1259;73989;-72
2023/05/24 01:45:10;;;;;;;6.10;2.50;;;;;;;9.98;97.30;100576.05;105470;1257;83129;-75
2023/05/24 01:48:17;;;;;;;6.20;2.50;;;;;;;9.96;97.40;100580.29;104855;1261;73616;-71
2023/05/24 01:51:12;;;;;;;4.60;3.00;;;;;;;9.94;97.26;100592.58;104747;1266;69173;-72
2023/05/24 01:54:06;;;;;;;10.10;3.40;;;;;;;9.91;97.29;100592.16;104763;1265;69214;-66
2023/05/24 01:56:58;;;;;;;8.40;3.20;;;;;;;9.85;97.17;100595.31;104820;1263;74142;-66
2023/05/24 01:59:39;;;;;;;7.00;3.50;;;;;;;9.80;97.39;100594.77;104811;1266;83383;-67
2023/05/24 02:02:30;;;;;;;6.40;2.70;;;;;;;9.76;97.04;100605.20;104758;1266;73222;-66
2023/05/24 02:05:11;;;;;;;7.20;2.40;;;;;;;9.69;97.16;100604.00;104793;1260;69292;-64
2023/05/24 02:08:00;;;;;;;4.60;2.60;;;;;;;9.66;97.12;100606.55;104784;1261;69393;-67
2023/05/24 02:10:50;;;;;;;6.30;3.10;;;;;;;9.61;97.17;100609.11;104864;1263;74014;-64
2023/05/24 02:13:30;;;;;;;6.80;2.90;;;;;;;9.54;96.84;100608.81;104840;1262;83665;-66
2023/05/24 02:16:22;;;;;;;6.70;3.10;;;;;;;9.46;97.11;100604.52;104753;1262;73584;-67
2023/05/24 02:19:14;;;;;;;4.00;2.50;;;;;;;9.42;97.46;100608.45;104863;1262;69154;-66
2023/05/24 02:21:54;;;;;;;9.40;3.10;;;;;;;9.40;97.53;100606.95;104841;1265;69298;-66
2023/05/24 02:24:35;;;;;;;8.40;3.60;;;;;;;9.40;97.84;100606.59;104949;1265;72455;-69
2023/05/24 02:27:26;;;;;;;5.50;3.40;;;;;;;9.39;97.96;100614.47;105428;1256;83523;-65
2023/05/24 02:30:14;;;;;;;6.60;3.10;;;;;;;9.39;98.14;100613.77;105393;1254;72671;-64
2023/05/24 02:32:54;;;;;;;9.70;3.40;;;;;;;9.40;98.32;100616.02;105401;1254;69151;-65
2023/05/24 02:35:40;;;;;;;7.50;3.90;;;;;;;9.40;98.25;100621.25;105486;1254;69192;-63
2023/05/24 02:38:31;;;;;;;7.40;2.80;;;;;;;9.37;97.72;100622.88;105445;1259;73199;-64
2023/05/24 02:41:16;;;;;;;6.00;3.50;;;;;;;9.37;98.34;100625.16;105445;1254;82105;-64
2023/05/24 02:43:57;;;;;;;6.20;3.20;;;;;;;9.38;98.05;100629.51;105411;1254;73805;-65
2023/05/24 02:46:50;;;;;;;5.80;3.10;;;;;;;9.36;98.45;100633.38;105445;1257;69145;-64
2023/05/24 02:49:30;;;;;;;9.80;3.70;;;;;;;9.38;98.59;100630.02;105435;1254;69048;-65
2023/05/24 02:52:11;;;;;;;8.70;3.00;;;;;;;9.38;98.53;100633.67;105518;1257;73863;-64
2023/05/24 02:55:08;;;;;;;6.30;2.90;;;;;;;9.40;98.56;100634.85;105496;1254;83381;-64
2023/05/24 02:57:57;;;;;;;8.70;3.10;;;;;;;9.42;98.58;100642.48;105473;1257;72768;-69
2023/05/24 03:00:40;;;;;;;7.30;3.40;;;;;;;9.42;98.59;100646.48;105489;1257;69176;-66
2023/05/24 03:03:17;;;;;;;7.20;3.30;;;;;;;9.43;98.51;100649.59;105422;1254;69078;-64
2023/05/24 03:06:02;;;;;;;10.00;3.70;;;;;;;9.42;98.24;100652.08;105415;1258;74208;-65
2023/05/24 03:08:38;;;;;;;7.60;3.40;;;;;;;9.43;98.56;100657.78;105321;1254;81275;-63
2023/05/24 03:11:26;;;;;;;9.40;3.50;;;;;;;9.44;98.24;100661.42;105524;1254;73711;-68
2023/05/24 03:14:09;;;;;;;8.60;3.00;;;;;;;9.44;98.47;100658.98;105482;1254;69174;-64
2023/05/24 03:16:56;;;;;;;10.40;3.20;;;;;;;9.47;98.65;100662.40;105367;1254;69193;-66
2023/05/24 03:19:44;;;;;;;8.00;3.70;;;;;;;9.47;98.19;100667.09;105436;1259;73083;-64
2023/05/24 03:22:33;;;;;;;8.20;2.80;;;;;;;9.45;98.27;100664.53;105538;1257;83356;-66
2023/05/24 03:25:17;;;;;;;7.60;3.40;;;;;;;9.43;98.11;100659.36;105475;1254;72677;-66
2023/05/24 03:27:58;;;;;;;11.80;3.30;;;;;;;9.43;98.07;100657.64;105484;1254;69202;-65
2023/05/24 03:30:39;;;;;;;10.80;3.30;;;;;;;9.41;98.11;100656.10;105488;1257;69190;-65
2023/05/24 03:33:23;;;;;;;11.10;3.90;;;;;;;9.41;98.03;100665.70;105517;1254;73103;-64
2023/05/24 03:36:06;;;;;;;11.00;3.60;;;;;;;9.41;97.69;100668.50;105589;1257;82175;-66
2023/05/24 03:38:46;;;;;;;13.00;3.80;;;;;;;9.38;97.73;100668.55;105468;1254;73588;-63
2023/05/24 03:41:51;;;;;;;8.30;3.60;;;;;;;9.36;97.28;100672.11;105583;1254;69199;-65
2023/05/24 03:44:32;;;;;;;12.40;3.70;;;;;;;9.34;97.31;100672.00;105385;1254;69151;-63
2023/05/24 03:47:14;;;;;;;8.60;3.40;;;;;;;9.32;97.12;100661.77;105463;1256;74230;-62
2023/05/24 03:49:57;;;;;;;8.70;3.30;;;;;;;9.29;97.18;100666.90;105445;1257;83082;-65
2023/05/24 03:52:46;;;;;;;9.10;3.70;;;;;;;9.29;97.04;100675.81;105498;1254;73514;-62
2023/05/24 03:55:28;;;;;;;10.70;3.30;;;;;;;9.26;96.84;100679.89;105278;1259;69211;-63
2023/05/24 03:58:15;;;;;;;8.90;2.90;;;;;;;9.27;96.94;100675.66;105385;1260;69231;-63
2023/05/24 04:01:18;;;;;;;13.20;3.10;;;;;;;9.29;96.92;100678.60;105488;1259;72804;-63
2023/05/24 04:04:16;;;;;;;13.50;3.70;;;;;;;9.29;97.06;100677.52;105454;1257;83312;-62
2023/05/24 04:07:14;;;;;;;8.40;3.50;;;;;;;9.31;96.96;100680.27;105413;1254;73650;-64
2023/05/24 04:09:56;;;;;;;8.50;3.10;;;;;;;9.32;96.82;100685.32;105421;1255;69195;-63
2023/05/24 04:12:45;;;;;;;12.50;3.30;;;;;;;9.31;96.70;100687.77;105359;1259;69284;-65
2023/05/24 04:15:24;;;;;;;10.70;3.60;;;;;;;9.29;96.44;100695.33;105448;1259;74278;-63
2023/05/24 04:18:11;;;;;;;10.90;3.50;;;;;;;9.26;96.28;100703.24;105498;1254;83878;-65
2023/05/24 04:21:00;;;;;;;11.80;3.70;;;;;;;9.26;96.35;100704.65;105457;1254;73093;-65
2023/05/24 04:23:50;;;;;;;12.80;3.40;;;;;;;9.27;96.49;100715.09;105553;1259;69231;-65
2023/05/24 04:26:24;;;;;;;9.60;3.60;;;;;;;9.29;96.54;100712.25;105458;1258;69195;-63
2023/05/24 04:29:19;;;;;;;8.40;3.00;;;;;;;9.31;96.36;100715.15;105298;1254;74161;-64
2023/05/24 04:32:00;;;;;;;11.20;3.30;;;;;;;9.32;96.30;100715.30;105403;1254;83298;-66
2023/05/24 04:34:49;;;;;;;11.60;3.50;;;;;;;9.33;96.42;100714.73;105495;1254;72867;-63
2023/05/24 04:37:32;;;;;;;12.60;3.50;;;;;;;9.35;96.31;100718.01;105525;1254;68986;-67
2023/05/24 04:40:24;;;;;;;11.60;2.80;;;;;;;9.35;96.19;100721.14;105540;1258;69211;-63
2023/05/24 04:43:09;;;;;;;12.30;3.10;;;;;;;9.36;96.08;100726.02;105549;1256;74183;-65
2023/05/24 04:45:59;;;;;;;12.70;3.40;;;;;;;9.36;95.93;100723.39;105477;1254;83459;-63
2023/05/24 04:48:44;;;;;;;13.70;3.70;;;;;;;9.39;96.23;100727.66;105468;1254;73839;-62
2023/05/24 04:51:26;;;;;;;12.20;3.30;;;;;;;9.43;96.51;100730.70;105475;1254;70779;-63
2023/05/24 04:54:07;;;;;;;13.40;3.70;;;;;;;9.47;96.51;100731.48;105505;1257;69186;-63
2023/05/24 04:56:47;;;;;;;14.00;4.00;;;;;;;9.52;96.47;100737.09;105530;1254;73243;-64
2023/05/24 04:59:42;;;;;;;15.00;3.70;;;;;;;9.56;96.69;100741.52;105472;1259;83506;-64
2023/05/24 05:02:38;;;;;;;;;;;;;;;;;;;;;
2023/05/24 05:05:30;;;;;;;8.90;3.70;;;;;;;9.65;96.68;100740.38;105502;1258;69185;-68
2023/05/24 05:08:14;;;;;;;10.60;3.10;;;;;;;9.70;96.66;100742.88;105522;1254;69173;-66
2023/05/24 05:10:55;;;;;;;11.70;4.10;;;;;;;9.74;96.66;100741.54;105504;1258;74249;-65
2023/05/24 05:13:40;;;;;;;13.30;3.70;;;;;;;9.79;96.55;100744.20;105481;1257;83574;-65
2023/05/24 05:16:30;;;;;;;13.60;4.00;;;;;;;9.83;96.41;100750.37;105470;1254;74291;-65
2023/05/24 05:19:10;;;;;;;12.20;4.40;;;;;;;9.86;95.96;100750.80;105514;1254;69074;-67
2023/05/24 05:21:49;;;;;;;;;;;;;;;9.87;95.88;100752.17;105504;1254;69201;-65
2023/05/24 05:24:50;;;;;;;12.00;3.50;;;;;;;9.91;96.02;100751.71;105609;1254;74047;-66
2023/05/24 05:27:30;;;;;;;12.10;3.60;;;;;;;9.97;96.07;100754.83;105542;1259;83368;-66
2023/05/24 05:30:11;;;;;;;10.60;3.30;;;;;;;10.04;95.88;100757.79;105488;1254;73540;-65
2023/05/24 05:33:01;;;;;;;8.80;3.60;;;;;;;10.10;95.77;100760.92;105461;1254;69128;-64
2023/05/24 05:35:32;;;;;;;9.60;3.20;;;;;;;10.16;95.45;100766.52;105529;1255;69068;-63
2023/05/24 05:38:04;;;;;;;10.90;3.80;;;;;;;10.20;95.44;100762.90;105633;1254;72992;-63
2023/05/24 05:40:41;;;;;;;14.40;4.20;;;;;;;10.28;95.53;100766.72;105609;1256;82503;-63
2023/05/24 05:43:23;;;;;;;11.80;4.10;;;;;;;10.32;95.17;100764.34;105578;1256;73897;-63
2023/05/24 05:46:00;;;;;;;16.00;4.90;;;;;;;10.36;95.23;100763.34;105535;1254;69126;-64
2023/05/24 05:48:31;;;;;;;13.70;4.20;;;;;;;10.43;95.40;100760.85;105597;1254;69088;-64
2023/05/24 05:51:03;;;;;;;14.60;5.40;;;;;;;10.50;95.35;100766.58;105830;1254;75730;-65
2023/05/24 05:53:38;;;;;;;11.60;4.40;;;;;;;10.57;95.46;100764.10;105553;1257;83287;-65
2023/05/24 05:56:09;;;;;;;17.00;4.60;;;;;;;10.63;95.22;100764.96;105356;1256;276106;-65
2023/05/24 05:58:41;;;;;;;14.80;4.40;;;;;;;10.70;95.33;100770.14;105605;1253;69095;-65
2023/05/24 06:01:18;;;;;;;16.10;5.00;;;;;;;10.77;95.25;100775.52;105626;1254;69065;-65
2023/05/24 06:03:50;;;;;;;10.00;4.40;;;;;;;10.80;94.99;100776.81;105571;1254;74235;-65
2023/05/24 06:06:30;;;;;;;15.10;4.90;;;;;;;10.85;95.16;100775.26;105517;1257;83449;-66
2023/05/24 06:09:02;;;;;;;14.10;4.90;;;;;;;10.88;94.78;100781.61;105508;1254;72615;-66
2023/05/24 06:11:35;;;;;;;15.60;5.50;;;;;;;10.87;94.55;100782.73;105524;1257;69237;-66
2023/05/24 06:14:04;;;;;;;13.80;4.80;;;;;;;10.83;94.48;100782.30;105523;1255;69166;-67
2023/05/24 06:16:40;;;;;;;12.10;5.00;;;;;;;10.81;94.85;100785.52;105594;1254;74201;-67
2023/05/24 06:19:12;;;;;;;13.60;5.20;;;;;;;10.82;94.61;100784.26;105766;1257;82746;-66
2023/05/24 06:21:46;;;;;;;14.80;5.10;;;;;;;10.80;94.56;100786.44;105759;1256;73745;-66
2023/05/24 06:24:20;;;;;;;14.60;5.20;;;;;;;10.78;94.46;100787.74;105656;1255;69089;-66
2023/05/24 06:26:54;;;;;;;16.20;5.20;;;;;;;10.76;94.62;100789.52;105631;1254;69205;-68
2023/05/24 06:29:26;;;;;;;12.10;4.70;;;;;;;10.80;95.06;100792.73;105684;1254;73374;-67
2023/05/24 06:31:57;;;;;;;16.50;5.60;;;;;;;10.84;94.89;100793.83;105546;1257;83454;-66
2023/05/24 06:34:28;;;;;;;14.20;4.90;;;;;;;10.87;94.84;100793.89;105536;1255;72809;-66
2023/05/24 06:37:01;;;;;;;11.90;4.30;;;;;;;10.93;94.51;100798.41;105633;1253;69086;-66
2023/05/24 06:39:32;;;;;;;16.90;4.60;;;;;;;10.96;94.03;100800.60;105501;1256;69064;-65
2023/05/24 06:42:01;;;;;;;16.20;5.40;;;;;;;10.99;93.67;100797.73;105572;1257;73104;-66
2023/05/24 06:44:36;;;;;;;19.10;4.50;;;;;;;11.03;93.60;100800.20;105549;1257;83372;-66
2023/05/24 06:47:08;;;;;;;13.50;4.10;;;;;;;11.13;93.66;100801.81;105676;1254;73875;-67
2023/05/24 06:49:37;;;;;;;15.00;4.90;;;;;;;11.25;93.65;100801.25;105769;1257;69084;-65
2023/05/24 06:52:07;;;;;;;12.60;3.80;;;;;;;11.35;93.28;100805.27;105725;1254;69199;-66
2023/05/24 06:54:36;;;;;;;15.20;5.30;;;;;;;11.43;93.16;100807.12;105666;1254;73945;-68
2023/05/24 06:57:04;;;;;;;13.30;3.70;;;;;;;11.52;93.00;100808.53;105668;1257;83420;-66
2023/05/24 06:59:33;;;;;;;9.90;3.80;;;;;;;11.61;92.76;100813.48;105541;1257;73502;-66
2023/05/24 07:02:01;;;;;;;14.80;5.00;;;;;;;11.64;92.07;100820.20;105642;1254;69196;-65
2023/05/24 07:04:31;;;;;;;18.50;4.30;;;;;;;11.68;91.82;100820.95;105751;1256;69228;-63
2023/05/24 07:07:01;;;;;;;12.70;4.70;;;;;;;11.71;91.84;100827.13;105563;1256;74472;-64
2023/05/24 07:09:30;;;;;;;13.30;4.40;;;;;;;11.73;91.68;100830.73;105571;1257;83468;-65
2023/05/24 07:12:01;;;;;;;13.00;4.70;;;;;;;11.75;91.47;100834.02;105797;1254;72799;-66
2023/05/24 07:14:29;;;;;;;15.00;4.80;;;;;;;11.77;91.39;100835.16;105575;1256;69084;-65
2023/05/24 07:16:58;;;;;;;13.70;4.80;;;;;;;11.81;91.38;100838.86;105536;1257;69020;-65
2023/05/24 07:19:28;;;;;;;15.20;4.80;;;;;;;11.83;90.90;100842.13;105625;1257;72963;-65
2023/05/24 07:22:00;;;;;;;15.60;4.70;;;;;;;11.84;90.48;100844.20;105739;1257;83424;-67
2023/05/24 07:24:31;;;;;;;10.80;4.20;;;;;;;11.84;90.55;100845.05;105552;1255;73851;-66
2023/05/24 07:27:00;;;;;;;13.80;4.50;;;;;;;11.91;90.63;100847.48;105523;1255;69136;-64
2023/05/24 07:29:35;;;;;;;12.40;5.00;;;;;;;11.92;90.27;100849.20;105537;1256;69119;-67
2023/05/24 07:32:11;;;;;;;20.00;5.90;;;;;;;11.96;90.31;100851.51;105523;1255;74558;-62
2023/05/24 07:34:43;;;;;;;15.20;6.00;;;;;;;11.96;89.70;100856.59;105541;1256;83586;-64
2023/05/24 07:37:23;;;;;;;;;;;;;;;11.94;89.30;100855.95;105517;1256;73956;-67
2023/05/24 07:39:55;;;;;;;15.30;4.90;;;;;;;11.95;89.18;100861.16;105553;1254;69083;-64
2023/05/24 07:42:24;;;;;;;12.10;5.60;;;;;;;12.01;89.09;100863.42;105534;1257;69087;-64
2023/05/24 07:44:56;;;;;;;21.70;6.40;;;;;;;12.08;89.07;100870.17;105547;1255;74294;-66
2023/05/24 07:47:27;;;;;;;15.00;5.30;;;;;;;12.17;88.97;100870.56;105537;1254;82588;-66
2023/05/24 07:50:04;;;;;;;19.00;7.80;;;;;;;12.26;89.10;100872.48;105483;1254;72781;-65
2023/05/24 07:52:37;;;;;;;15.40;5.60;;;;;;;12.37;88.59;100873.69;105494;1254;69214;-66
2023/05/24 07:55:06;;;;;;;15.70;5.20;;;;;;;12.43;88.22;100879.05;105540;1256;69288;-66
2023/05/24 07:57:37;;;;;;;10.40;5.50;;;;;;;12.52;88.11;100881.02;105562;1256;74124;-69
2023/05/24 08:00:10;;;;;;;14.00;5.40;;;;;;;12.59;87.82;100878.11;105592;1257;83120;-63
2023/05/24 08:02:44;;;;;;;14.10;5.90;;;;;;;12.63;87.29;100883.41;105591;1257;73869;-66
2023/05/24 08:05:16;;;;;;;14.00;5.00;;;;;;;12.70;87.11;100884.89;105574;1256;69201;-63
2023/05/24 08:07:48;;;;;;;13.60;4.60;;;;;;;12.76;86.73;100887.80;105645;1255;69205;-64
2023/05/24 08:10:17;;;;;;;16.00;5.70;;;;;;;12.84;86.42;100892.60;105581;1254;74121;-66
2023/05/24 08:12:48;;;;;;;12.60;4.90;;;;;;;12.92;86.21;100890.52;105692;1253;83444;-63
2023/05/24 08:15:20;;;;;;;10.00;5.00;;;;;;;12.99;86.07;100891.64;105604;1254;73830;-63
2023/05/24 08:17:51;;;;;;;13.80;5.20;;;;;;;13.05;85.62;100891.23;105626;1256;69163;-65
2023/05/24 08:20:23;;;;;;;14.00;5.40;;;;;;;13.14;85.61;100898.08;105567;1257;69256;-64
2023/05/24 08:22:54;;;;;;;10.60;5.40;;;;;;;13.17;85.04;100897.61;105612;1257;73998;-64
2023/05/24 08:25:28;;;;;;;20.60;6.20;;;;;;;13.19;84.79;100898.23;105543;1256;83325;-64
2023/05/24 08:27:57;;;;;;;14.30;6.10;;;;;;;13.22;84.37;100898.27;105589;1255;73767;-63
2023/05/24 08:30:26;;;;;;;16.10;5.60;;;;;;;13.22;84.08;100902.86;105666;1254;69102;-65
2023/05/24 08:33:01;;;;;;;13.40;5.00;;;;;;;13.25;84.13;100901.71;105642;1256;69198;-64
2023/05/24 08:35:34;;;;;;;16.50;4.20;;;;;;;13.31;83.86;100901.63;105590;1256;74231;-66
2023/05/24 08:38:06;;;;;;;14.00;4.70;;;;;;;13.36;83.57;100900.21;105600;1257;83836;-65
2023/05/24 08:40:37;;;;;;;13.80;4.10;;;;;;;13.50;83.71;100903.17;105584;1253;73765;-66
2023/05/24 08:43:10;;;;;;;14.40;4.20;;;;;;;13.65;83.57;100906.39;105584;1257;69141;-67
2023/05/24 08:45:40;;;;;;;12.20;4.00;;;;;;;13.76;83.15;100909.27;105578;1252;69170;-65
2023/05/24 08:48:16;;;;;;;13.00;4.20;;;;;;;13.87;82.78;100915.83;105625;1257;72478;-61
2023/05/24 08:50:48;;;;;;;14.40;4.60;;;;;;;13.95;82.20;100917.07;105626;1257;82471;-64
2023/05/24 08:53:22;;;;;;;13.80;4.50;;;;;;;14.02;81.80;100919.23;105568;1255;73896;-68
2023/05/24 08:55:54;;;;;;;19.80;5.20;;;;;;;14.07;81.37;100920.60;105515;1260;69881;-65
2023/05/24 08:58:26;;;;;;;14.10;5.50;;;;;;;14.08;80.96;100921.09;105593;1266;69258;-63
2023/05/24 09:00:55;;;;;;;12.20;4.60;;;;;;;14.05;80.41;100928.40;105578;1254;74054;-63
2023/05/24 09:03:26;;;;;;;15.40;5.00;;;;;;;14.07;80.60;100930.44;105628;1257;82677;-63
2023/05/24 09:05:59;;;;;;;12.80;5.10;;;;;;;14.17;80.57;100937.23;105479;1258;74599;-61
2023/05/24 09:08:28;;;;;;;14.10;4.70;;;;;;;14.18;80.36;100939.64;105603;1254;69237;-63
2023/05/24 09:10:57;;;;;;;15.60;5.50;;;;;;;14.22;80.16;100944.39;105617;1257;69150;-65
2023/05/24 09:13:30;;;;;;;11.20;4.10;;;;;;;14.28;80.33;100943.94;105556;1257;73239;-62
2023/05/24 09:15:59;;;;;;;13.20;4.80;;;;;;;14.36;80.52;100941.31;105552;1256;83300;-66
2023/05/24 09:18:30;;;;;;;13.20;4.20;;;;;;;14.44;80.58;100943.58;105546;1254;72843;-65
2023/05/24 09:21:02;;;;;;;12.60;4.30;;;;;;;14.48;80.11;100945.33;105590;1264;69179;-66
2023/05/24 09:23:31;;;;;;;15.00;4.40;;;;;;;14.53;79.90;100946.73;105552;1255;69070;-67
2023/05/24 09:26:08;;;;;;;10.20;4.00;;;;;;;14.58;79.29;100948.30;105646;1258;73164;-67
2023/05/24 09:28:40;;;;;;;11.10;4.80;;;;;;;14.64;79.35;100947.48;105603;1256;83097;-63
2023/05/24 09:31:09;;;;;;;13.20;4.70;;;;;;;14.73;79.01;100950.94;105584;1257;72796;-68
2023/05/24 09:33:38;;;;;;;11.60;4.70;;;;;;;14.81;78.72;100950.39;105546;1257;69186;-65
2023/05/24 09:36:10;;;;;;;11.50;4.20;;;;;;;14.89;78.26;100952.15;105601;1254;69071;-65
2023/05/24 09:38:39;;;;;;;13.90;4.50;;;;;;;14.98;78.54;100952.93;105600;1256;73021;-68
2023/05/24 09:41:09;;;;;;;11.30;3.90;;;;;;;15.06;78.01;100953.48;105556;1257;83407;-65
2023/05/24 09:43:50;;;;;;;12.60;4.50;;;;;;;15.12;78.07;100950.20;105569;1257;73785;-66
2023/05/24 09:46:20;;;;;;;15.30;4.90;;;;;;;15.17;77.64;100952.25;105606;1257;69188;-63
2023/05/24 09:48:58;;;;;;;14.60;5.10;;;;;;;15.22;77.61;100955.90;105659;1257;69179;-66
2023/05/24 09:51:27;;;;;;;16.70;5.30;;;;;;;15.25;76.86;100959.97;105571;1256;74003;-65
2023/05/24 09:53:57;;;;;;;16.30;5.70;;;;;;;15.23;76.52;100959.15;105698;1256;83159;-66
2023/05/24 09:56:26;;;;;;;13.00;5.00;;;;;;;15.22;75.92;100956.95;105570;1257;72564;-67
2023/05/24 09:58:58;;;;;;;13.70;5.30;;;;;;;15.16;75.45;100954.23;105631;1254;69197;-65
2023/05/24 10:01:27;;;;;;;13.20;4.20;;;;;;;15.14;75.65;100956.27;105590;1256;69128;-64
2023/05/24 10:03:58;;;;;;;12.10;4.50;;;;;;;15.12;75.58;100956.89;105604;1253;74025;-63
2023/05/24 10:06:31;;;;;;;11.80;4.20;;;;;;;15.08;75.49;100956.73;105592;1257;83428;-64
2023/05/24 10:09:00;;;;;;;11.10;4.50;;;;;;;15.04;75.41;100959.73;105590;1256;72862;-64
2023/05/24 10:11:34;;;;;;;11.70;4.20;;;;;;;15.02;75.26;100957.35;105610;1254;69112;-65
2023/05/24 10:14:08;;;;;;;14.30;4.60;;;;;;;14.97;74.59;100953.20;105617;1257;69213;-68
2023/05/24 10:16:37;;;;;;;10.90;4.30;;;;;;;15.03;75.00;100952.21;105599;1256;74148;-65
2023/05/24 10:19:07;;;;;;;15.20;4.30;;;;;;;15.15;74.86;100946.89;105585;1257;83498;-65
2023/05/24 10:21:39;;;;;;;14.50;4.40;;;;;;;15.19;74.31;100944.92;105585;1254;72472;-66
2023/05/24 10:24:08;;;;;;;11.30;4.10;;;;;;;15.32;74.47;100943.98;105542;1254;69167;-65
2023/05/24 10:26:38;;;;;;;12.40;4.50;;;;;;;15.35;73.98;100945.73;105641;1252;69202;-64
2023/05/24 10:29:11;;;;;;;14.40;4.50;;;;;;;15.35;73.65;100945.07;105608;1254;73151;-67
2023/05/24 10:31:40;;;;;;;14.20;4.60;;;;;;;15.33;73.44;100940.73;105526;1257;82431;-67
2023/05/24 10:34:09;;;;;;;13.70;4.50;;;;;;;15.33;73.19;100943.52;105617;1258;74315;-66
2023/05/24 10:36:39;;;;;;;20.10;4.60;;;;;;;15.47;73.34;100944.80;105571;1257;69198;-66
2023/05/24 10:39:10;;;;;;;11.80;4.30;;;;;;;15.61;72.80;100948.73;105556;1256;69179;-65
2023/05/24 10:41:40;;;;;;;10.20;3.90;;;;;;;15.74;72.70;100953.20;105608;1256;74088;-67
2023/05/24 10:44:12;;;;;;;11.20;4.40;;;;;;;15.98;72.76;100956.59;105590;1257;83310;-67
2023/05/24 10:47:05;;;;;;;14.20;4.10;;;;;;;16.19;72.31;100954.98;105591;1257;72713;-67
2023/05/24 10:49:34;;;;;;;15.20;4.10;;;;;;;16.41;71.63;100955.58;105539;1257;69285;-65
2023/05/24 10:52:07;;;;;;;10.80;4.10;;;;;;;16.69;71.64;100959.80;105756;1256;69231;-64
2023/05/24 10:54:37;;;;;;;14.50;4.00;;;;;;;17.05;71.37;100958.02;105548;1255;74075;-64
2023/05/24 10:57:09;;;;;;;8.50;3.60;;;;;;;17.43;70.62;100956.11;105595;1256;83247;-65
2023/05/24 10:59:38;;;;;;;11.10;4.20;;;;;;;17.48;69.84;100957.55;105518;1256;72707;-62
2023/05/24 11:02:12;;;;;;;10.30;3.40;;;;;;;17.42;69.16;100955.62;105658;1257;69269;-64
2023/05/24 11:04:45;;;;;;;9.80;3.80;;;;;;;17.36;68.92;100963.55;105564;1257;69122;-63
2023/05/24 11:07:15;;;;;;;9.00;4.10;;;;;;;17.32;68.59;100962.17;105626;1257;73124;-69
2023/05/24 11:09:51;;;;;;;9.50;3.90;;;;;;;17.28;68.47;100967.02;105571;1257;83397;-66
2023/05/24 11:12:20;;;;;;;9.10;3.80;;;;;;;17.18;67.79;100965.08;105527;1256;72866;-66
2023/05/24 11:14:50;;;;;;;11.90;3.90;;;;;;;17.13;67.54;100969.05;105638;1257;69175;-60
2023/05/24 11:17:22;;;;;;;;;;;;;;;17.18;67.54;100968.08;105600;1254;69131;-61
2023/05/24 11:19:52;;;;;;;10.10;3.30;;;;;;;17.16;67.05;100967.48;105592;1257;73807;-65
2023/05/24 11:22:24;;;;;;;10.70;3.60;;;;;;;17.12;67.09;100965.77;105570;1256;83467;-62
2023/05/24 11:24:53;;;;;;;9.50;3.50;;;;;;;17.08;67.16;100964.70;105617;1258;73720;-62
2023/05/24 11:27:21;;;;;;;7.30;3.30;;;;;;;17.06;67.13;100969.08;105617;1257;69146;-64
2023/05/24 11:29:50;;;;;;;11.60;3.70;;;;;;;17.00;66.96;100967.63;105511;1257;69298;-62
2023/05/24 11:32:20;;;;;;;9.40;3.50;;;;;;;16.89;66.98;100970.21;105554;1256;73153;-63
2023/05/24 11:34:48;;;;;;;8.40;3.60;;;;;;;16.80;66.86;100973.52;105556;1257;83263;-64
2023/05/24 11:37:17;;;;;;;7.40;3.00;;;;;;;16.76;67.05;100971.77;105630;1257;73682;-59
2023/05/24 11:39:53;;;;;;;7.90;2.90;;;;;;;16.73;66.74;100970.48;105601;1254;69205;-60
2023/05/24 11:42:22;;;;;;;10.20;3.50;;;;;;;16.75;66.58;100971.27;105605;1257;69182;-63
2023/05/24 11:44:52;;;;;;;10.70;3.10;;;;;;;16.77;66.18;100971.55;105596;1252;73102;-61
2023/05/24 11:47:21;;;;;;;11.70;3.70;;;;;;;16.84;66.51;100972.94;105561;1257;82298;-61
2023/05/24 11:49:50;;;;;;;8.90;3.90;;;;;;;16.94;66.00;100970.64;105631;1257;73602;-60
2023/05/24 11:52:19;;;;;;;7.50;3.10;;;;;;;16.96;65.82;100970.02;105585;1255;69131;-60
2023/05/24 11:54:48;;;;;;;7.20;3.00;;;;;;;17.00;65.79;100966.21;105700;1254;69167;-60
2023/05/24 11:57:18;;;;;;;10.20;3.50;;;;;;;17.01;65.80;100968.30;105644;1255;74433;-60
2023/05/24 11:59:47;;;;;;;10.20;3.30;;;;;;;17.00;65.78;100972.80;105607;1257;83404;-63
2023/05/24 12:02:15;;;;;;;10.80;3.50;;;;;;;17.02;66.04;100970.94;105534;1254;72794;-63